createdAt,value
2018-02-07T00:02:13.701Z,2.48
2018-02-07T00:04:42.023Z,2.41
2018-02-07T00:07:10.293Z,2.37
2018-02-07T00:09:38.602Z,2.23
2018-02-07T00:12:06.896Z,2.30
2018-02-07T00:14:35.196Z,2.38
2018-02-07T00:17:03.490Z,2.16
2018-02-07T00:19:31.845Z,1.97
2018-02-07T00:22:00.113Z,1.85
2018-02-07T00:24:28.428Z,1.74
2018-02-07T00:26:56.715Z,1.72
2018-02-07T00:29:25.008Z,1.75
2018-02-07T00:31:53.309Z,1.60
2018-02-07T00:34:21.590Z,1.52
2018-02-07T00:36:49.882Z,1.47
2018-02-07T00:39:18.174Z,1.40
2018-02-07T00:41:46.488Z,1.52
2018-02-07T00:44:14.762Z,1.59
2018-02-07T00:46:43.101Z,1.67
2018-02-07T00:49:11.385Z,1.74
2018-02-07T00:51:39.690Z,1.79
2018-02-07T00:54:07.980Z,1.86
2018-02-07T00:56:36.255Z,1.78
2018-02-07T00:59:05.282Z,1.82
2018-02-07T01:01:33.557Z,1.84
2018-02-07T01:04:02.536Z,1.87
2018-02-07T01:06:30.856Z,1.77
2018-02-07T01:08:59.166Z,1.96
2018-02-07T01:11:27.437Z,1.94
2018-02-07T01:13:55.742Z,1.81
2018-02-07T01:16:24.035Z,1.88
2018-02-07T01:18:52.332Z,1.78
2018-02-07T01:21:20.625Z,1.65
2018-02-07T01:23:48.921Z,1.58
2018-02-07T01:26:17.192Z,1.73
2018-02-07T01:28:45.484Z,1.83
2018-02-07T01:31:13.791Z,1.94
2018-02-07T01:33:42.067Z,1.96
2018-02-07T01:36:10.358Z,1.87
2018-02-07T01:38:38.623Z,1.83
2018-02-07T01:41:06.958Z,1.90
2018-02-07T01:43:35.231Z,1.87
2018-02-07T01:46:03.560Z,1.88
2018-02-07T01:48:31.814Z,1.78
2018-02-07T01:51:00.169Z,1.71
2018-02-07T01:53:28.468Z,1.62
2018-02-07T01:55:56.776Z,1.66
2018-02-07T01:58:25.156Z,1.67
2018-02-07T02:00:53.396Z,1.66
2018-02-07T02:03:21.707Z,1.59
2018-02-07T02:05:49.984Z,1.55
2018-02-07T02:08:18.339Z,1.07
2018-02-07T02:10:46.572Z,0.86
2018-02-07T02:13:14.878Z,0.87
2018-02-07T02:15:43.191Z,1.05
2018-02-07T02:18:11.502Z,1.16
2018-02-07T02:20:39.783Z,1.29
2018-02-07T02:23:08.088Z,1.37
2018-02-07T02:25:36.367Z,1.44
2018-02-07T02:28:04.673Z,1.37
2018-02-07T02:30:32.947Z,1.33
2018-02-07T02:33:01.223Z,1.22
2018-02-07T02:35:29.541Z,1.30
2018-02-07T02:37:57.815Z,1.36
2018-02-07T02:40:26.125Z,1.26
2018-02-07T02:42:54.414Z,1.05
2018-02-07T02:45:22.706Z,1.09
2018-02-07T02:47:50.978Z,1.04
2018-02-07T02:50:19.274Z,0.78
2018-02-07T02:52:47.563Z,1.04
2018-02-07T02:55:15.848Z,1.10
2018-02-07T02:57:44.160Z,1.01
2018-02-07T03:00:12.431Z,1.03
2018-02-07T03:02:40.727Z,1.10
2018-02-07T03:05:09.007Z,1.18
2018-02-07T03:07:37.319Z,1.25
2018-02-07T03:10:05.619Z,1.16
2018-02-07T03:12:33.928Z,1.04
2018-02-07T03:15:02.257Z,1.16
2018-02-07T03:17:30.540Z,1.15
2018-02-07T03:19:58.813Z,0.90
2018-02-07T03:22:27.146Z,0.76
2018-02-07T03:24:55.450Z,0.82
2018-02-07T03:27:23.674Z,0.81
2018-02-07T03:29:51.991Z,0.76
2018-02-07T03:32:20.268Z,0.86
2018-02-07T03:34:48.602Z,0.95
2018-02-07T03:37:16.894Z,1.06
2018-02-07T03:39:45.204Z,1.14
2018-02-07T03:42:13.491Z,1.10
2018-02-07T03:44:41.809Z,1.00
2018-02-07T03:47:10.136Z,1.03
2018-02-07T03:49:38.437Z,1.00
2018-02-07T03:52:06.759Z,1.04
2018-02-07T03:54:35.453Z,1.03
2018-02-07T03:57:03.728Z,1.07
2018-02-07T03:59:32.044Z,0.96
2018-02-07T04:02:00.367Z,0.92
2018-02-07T04:04:28.653Z,0.95
2018-02-07T04:06:56.953Z,0.96
2018-02-07T04:09:25.229Z,0.94
2018-02-07T04:11:53.528Z,0.94
2018-02-07T04:14:21.807Z,1.12
2018-02-07T04:16:50.135Z,1.01
2018-02-07T04:19:18.423Z,0.85
2018-02-07T04:21:46.682Z,0.76
2018-02-07T04:24:15.006Z,0.88
2018-02-07T04:26:43.258Z,0.89
2018-02-07T04:29:11.566Z,0.90
2018-02-07T04:31:39.843Z,0.89
2018-02-07T04:34:08.164Z,0.94
2018-02-07T04:36:36.452Z,0.91
2018-02-07T04:39:05.686Z,0.68
2018-02-07T04:41:33.988Z,0.70
2018-02-07T04:44:02.654Z,0.63
2018-02-07T04:46:30.932Z,0.65
2018-02-07T04:48:59.201Z,0.72
2018-02-07T04:51:27.499Z,0.53
2018-02-07T04:53:55.763Z,0.48
2018-02-07T04:56:24.080Z,0.51
2018-02-07T04:58:52.364Z,0.70
2018-02-07T05:01:20.674Z,0.76
2018-02-07T05:03:49.014Z,0.78
2018-02-07T05:06:17.315Z,0.78
2018-02-07T05:08:45.620Z,0.71
2018-02-07T05:11:13.932Z,0.59
2018-02-07T05:13:42.212Z,0.50
2018-02-07T05:16:10.827Z,0.38
2018-02-07T05:18:39.218Z,0.47
2018-02-07T05:21:07.561Z,0.52
2018-02-07T05:23:35.895Z,0.52
2018-02-07T05:26:04.815Z,0.47
2018-02-07T05:28:33.120Z,0.24
2018-02-07T05:31:01.392Z,-0.07
2018-02-07T05:33:29.730Z,-0.09
2018-02-07T05:35:58.024Z,0.07
2018-02-07T05:38:26.352Z,0.15
2018-02-07T05:40:54.677Z,0.33
2018-02-07T05:43:22.960Z,0.38
2018-02-07T05:45:51.260Z,0.48
2018-02-07T05:48:19.549Z,0.45
2018-02-07T05:50:48.689Z,0.40
2018-02-07T05:53:16.979Z,0.47
2018-02-07T05:55:45.296Z,0.37
2018-02-07T05:58:13.571Z,0.47
2018-02-07T06:00:41.879Z,0.72
2018-02-07T06:03:10.185Z,0.57
2018-02-07T06:05:38.489Z,0.51
2018-02-07T06:08:06.765Z,0.74
2018-02-07T06:10:35.173Z,0.72
2018-02-07T06:13:03.434Z,0.59
2018-02-07T06:15:31.779Z,0.46
2018-02-07T06:18:00.103Z,0.47
2018-02-07T06:20:28.368Z,0.36
2018-02-07T06:22:56.685Z,0.28
2018-02-07T06:25:24.953Z,0.44
2018-02-07T06:27:53.287Z,0.46
2018-02-07T06:30:21.604Z,0.57
2018-02-07T06:32:49.930Z,0.66
2018-02-07T06:35:18.211Z,0.63
2018-02-07T06:37:46.501Z,0.51
2018-02-07T06:40:14.801Z,0.55
2018-02-07T06:42:43.149Z,0.52
2018-02-07T06:45:11.451Z,0.58
2018-02-07T06:47:39.796Z,0.52
2018-02-07T06:50:08.075Z,0.43
2018-02-07T06:52:36.393Z,0.47
2018-02-07T06:55:04.731Z,0.45
2018-02-07T06:57:33.044Z,0.51
2018-02-07T07:00:01.358Z,0.45
2018-02-07T07:02:29.640Z,0.43
2018-02-07T07:04:57.943Z,0.42
2018-02-07T07:07:26.219Z,0.39
2018-02-07T07:09:54.540Z,0.38
2018-02-07T07:12:22.820Z,0.26
2018-02-07T07:14:51.163Z,0.17
2018-02-07T07:17:19.471Z,0.11
2018-02-07T07:19:47.760Z,0.14
2018-02-07T07:22:16.387Z,0.11
2018-02-07T07:24:44.651Z,0.08
2018-02-07T07:27:12.954Z,0.14
2018-02-07T07:29:41.268Z,0.17
2018-02-07T07:32:09.578Z,0.11
2018-02-07T07:34:37.870Z,0.08
2018-02-07T07:37:06.221Z,0.11
2018-02-07T07:39:34.506Z,0.26
2018-02-07T07:42:02.826Z,-0.21
2018-02-07T07:44:31.155Z,0.18
2018-02-07T07:46:59.514Z,0.15
2018-02-07T07:49:27.794Z,0.19
2018-02-07T07:51:56.129Z,0.29
2018-02-07T07:54:24.436Z,0.37
2018-02-07T07:56:52.723Z,0.29
2018-02-07T07:59:21.028Z,0.30
2018-02-07T08:01:49.296Z,0.34
2018-02-07T08:04:17.598Z,0.41
2018-02-07T08:06:45.927Z,0.25
2018-02-07T08:09:14.272Z,0.42
2018-02-07T08:11:42.554Z,0.47
2018-02-07T08:14:10.878Z,0.52
2018-02-07T08:16:39.215Z,0.75
2018-02-07T08:19:07.623Z,0.65
2018-02-07T08:21:35.892Z,0.75
2018-02-07T08:24:04.167Z,0.55
2018-02-07T08:26:32.497Z,0.71
2018-02-07T08:29:00.746Z,0.71
2018-02-07T08:31:29.068Z,0.67
2018-02-07T08:33:57.373Z,0.50
2018-02-07T08:36:25.756Z,0.68
2018-02-07T08:38:54.055Z,0.74
2018-02-07T08:41:22.367Z,0.95
2018-02-07T08:43:50.669Z,1.09
2018-02-07T08:46:19.251Z,1.25
2018-02-07T08:48:47.664Z,1.26
2018-02-07T08:51:15.991Z,1.19
2018-02-07T08:53:44.383Z,1.13
2018-02-07T08:56:12.687Z,1.16
2018-02-07T08:58:41.035Z,1.32
2018-02-07T09:01:09.319Z,1.17
2018-02-07T09:03:37.625Z,1.21
2018-02-07T09:06:05.895Z,1.24
2018-02-07T09:08:34.272Z,1.18
2018-02-07T09:11:02.567Z,1.10
2018-02-07T09:13:31.180Z,0.97
2018-02-07T09:15:59.489Z,1.01
2018-02-07T09:18:27.808Z,1.05
2018-02-07T09:20:56.110Z,1.13
2018-02-07T09:23:24.491Z,1.12
2018-02-07T09:25:52.752Z,1.23
2018-02-07T09:28:21.084Z,1.27
2018-02-07T09:30:49.455Z,1.28
2018-02-07T09:33:17.746Z,1.23
2018-02-07T09:35:46.060Z,1.27
2018-02-07T09:38:14.372Z,1.16
2018-02-07T09:40:42.697Z,1.38
2018-02-07T09:43:10.971Z,1.46
2018-02-07T09:45:39.285Z,1.38
2018-02-07T09:48:07.592Z,1.33
2018-02-07T09:50:35.926Z,1.30
2018-02-07T09:53:04.224Z,1.52
2018-02-07T09:55:32.620Z,1.53
2018-02-07T09:58:00.937Z,1.57
2018-02-07T10:00:29.257Z,1.57
2018-02-07T10:02:57.582Z,1.59
2018-02-07T10:05:26.461Z,1.56
2018-02-07T10:07:55.111Z,1.59
2018-02-07T10:10:23.394Z,1.65
2018-02-07T10:12:51.796Z,1.72
2018-02-07T10:15:20.159Z,2.00
2018-02-07T10:17:48.464Z,2.17
2018-02-07T10:20:16.740Z,2.29
2018-02-07T10:22:45.112Z,2.24
2018-02-07T10:25:13.471Z,2.43
2018-02-07T10:27:41.882Z,2.69
2018-02-07T10:30:10.678Z,2.81
2018-02-07T10:32:38.969Z,2.92
2018-02-07T10:35:07.512Z,2.71
2018-02-07T10:37:36.100Z,2.81
2018-02-07T10:40:04.475Z,3.04
2018-02-07T10:42:32.754Z,3.23
2018-02-07T10:45:01.056Z,3.27
2018-02-07T10:47:29.384Z,3.48
2018-02-07T10:49:57.789Z,3.52
2018-02-07T10:52:26.200Z,3.69
2018-02-07T10:54:54.775Z,3.91
2018-02-07T10:57:23.127Z,4.03
2018-02-07T10:59:51.458Z,4.01
2018-02-07T11:02:21.009Z,3.92
2018-02-07T11:04:49.367Z,3.43
2018-02-07T11:07:17.692Z,3.97
2018-02-07T11:09:46.037Z,4.01
2018-02-07T11:12:14.435Z,4.07
2018-02-07T11:14:42.912Z,3.84
2018-02-07T11:17:11.289Z,3.90
2018-02-07T11:19:39.573Z,3.75
2018-02-07T11:22:07.927Z,3.34
2018-02-07T11:24:36.227Z,3.26
2018-02-07T11:27:04.657Z,3.23
2018-02-07T11:29:32.961Z,3.45
2018-02-07T11:32:01.275Z,3.13
2018-02-07T11:34:29.617Z,2.95
2018-02-07T11:36:59.223Z,3.13
2018-02-07T11:39:27.574Z,3.52
2018-02-07T11:41:55.884Z,3.63
2018-02-07T11:44:24.495Z,3.56
2018-02-07T11:46:52.852Z,3.44
2018-02-07T11:49:21.173Z,3.77
2018-02-07T11:51:50.011Z,4.10
2018-02-07T11:54:18.310Z,4.09
2018-02-07T11:56:46.587Z,3.83
2018-02-07T11:59:14.957Z,3.76
2018-02-07T12:01:43.436Z,4.04
2018-02-07T12:04:11.732Z,4.03
2018-02-07T12:06:40.056Z,3.93
2018-02-07T12:09:08.358Z,4.08
2018-02-07T12:11:36.736Z,4.15
2018-02-07T12:14:05.115Z,4.16
2018-02-07T12:16:33.984Z,4.46
2018-02-07T12:19:02.337Z,4.23
2018-02-07T12:21:30.650Z,4.04
2018-02-07T12:23:59.668Z,4.00
2018-02-07T12:26:28.000Z,4.31
2018-02-07T12:28:56.497Z,4.31
2018-02-07T12:31:24.831Z,4.54
2018-02-07T12:33:53.841Z,4.96
2018-02-07T12:36:22.184Z,5.25
2018-02-07T12:38:50.551Z,5.48
2018-02-07T12:41:18.840Z,4.90
2018-02-07T12:43:47.167Z,4.72
2018-02-07T12:46:15.516Z,4.87
2018-02-07T12:48:43.850Z,5.31
2018-02-07T12:51:12.163Z,5.66
2018-02-07T12:53:40.470Z,5.89
2018-02-07T12:56:08.758Z,5.95
2018-02-07T12:58:37.107Z,6.02
2018-02-07T13:01:05.440Z,5.68
2018-02-07T13:03:33.715Z,5.27
2018-02-07T13:06:01.988Z,5.63
2018-02-07T13:08:30.742Z,5.75
2018-02-07T13:10:59.888Z,5.84
2018-02-07T13:13:28.215Z,5.47
2018-02-07T13:15:56.547Z,5.42
2018-02-07T13:18:24.869Z,5.49
2018-02-07T13:20:53.280Z,5.35
2018-02-07T13:23:21.553Z,5.33
2018-02-07T13:25:50.027Z,5.56
2018-02-07T13:28:18.393Z,5.69
2018-02-07T13:30:46.713Z,5.67
2018-02-07T13:33:15.018Z,5.99
2018-02-07T13:35:43.336Z,5.95
2018-02-07T13:38:11.625Z,5.78
2018-02-07T13:40:39.942Z,5.68
2018-02-07T13:43:08.346Z,5.72
2018-02-07T13:45:36.687Z,5.37
2018-02-07T13:48:05.628Z,5.33
2018-02-07T13:50:33.907Z,5.21
2018-02-07T13:53:02.283Z,5.19
2018-02-07T13:55:30.572Z,5.27
2018-02-07T13:57:58.935Z,5.29
2018-02-07T14:00:27.228Z,5.21
2018-02-07T14:02:55.575Z,5.33
2018-02-07T14:05:24.473Z,5.32
2018-02-07T14:07:52.802Z,5.50
2018-02-07T14:10:21.996Z,5.73
2018-02-07T14:12:50.298Z,5.86
2018-02-07T14:15:18.577Z,6.04
2018-02-07T14:17:46.889Z,5.83
2018-02-07T14:20:15.228Z,5.82
2018-02-07T14:22:43.738Z,5.71
2018-02-07T14:25:12.156Z,5.62
2018-02-07T14:27:40.468Z,5.83
2018-02-07T14:30:08.771Z,5.81
2018-02-07T14:32:37.119Z,5.81
2018-02-07T14:35:05.427Z,5.84
2018-02-07T14:37:33.724Z,6.04
2018-02-07T14:40:02.542Z,5.91
2018-02-07T14:42:30.890Z,5.81
2018-02-07T14:44:59.502Z,5.74
2018-02-07T14:47:27.952Z,6.02
2018-02-07T14:49:56.242Z,5.96
2018-02-07T14:52:24.588Z,5.72
2018-02-07T14:54:52.890Z,5.76
2018-02-07T14:57:21.213Z,5.35
2018-02-07T14:59:49.515Z,5.38
2018-02-07T15:02:17.880Z,5.37
2018-02-07T15:04:46.205Z,5.53
2018-02-07T15:07:14.521Z,5.58
2018-02-07T15:09:42.833Z,5.53
2018-02-07T15:12:11.266Z,5.32
2018-02-07T15:14:39.612Z,5.47
2018-02-07T15:17:08.191Z,5.40
2018-02-07T15:19:36.518Z,5.35
2018-02-07T15:22:05.842Z,5.42
2018-02-07T15:24:34.941Z,5.42
2018-02-07T15:27:03.264Z,5.51
2018-02-07T15:29:31.565Z,5.46
2018-02-07T15:31:59.866Z,5.56
2018-02-07T15:34:28.484Z,5.49
2018-02-07T15:36:56.795Z,5.52
2018-02-07T15:39:25.135Z,5.60
2018-02-07T15:41:53.424Z,5.92
2018-02-07T15:44:21.769Z,6.04
2018-02-07T15:46:50.080Z,6.05
2018-02-07T15:49:18.476Z,5.75
2018-02-07T15:51:46.724Z,5.47
2018-02-07T15:54:15.112Z,5.65
2018-02-07T15:56:43.374Z,5.84
2018-02-07T15:59:12.325Z,5.91
2018-02-07T16:01:41.107Z,6.02
2018-02-07T16:04:09.431Z,6.09
2018-02-07T16:06:37.824Z,5.88
2018-02-07T16:09:06.123Z,5.71
2018-02-07T16:11:34.460Z,5.84
2018-02-07T16:14:02.742Z,5.95
2018-02-07T16:16:31.035Z,6.03
2018-02-07T16:18:59.342Z,6.09
2018-02-07T16:21:27.652Z,6.17
2018-02-07T16:23:55.987Z,6.02
2018-02-07T16:26:24.323Z,5.76
2018-02-07T16:28:52.622Z,5.88
2018-02-07T16:31:20.883Z,5.89
2018-02-07T16:33:49.185Z,5.97
2018-02-07T16:36:17.456Z,5.93
2018-02-07T16:38:46.532Z,5.97
2018-02-07T16:41:14.814Z,5.97
2018-02-07T16:43:43.130Z,5.95
2018-02-07T16:46:11.420Z,5.95
2018-02-07T16:48:39.826Z,5.82
2018-02-07T16:51:08.109Z,5.52
2018-02-07T16:53:36.438Z,5.50
2018-02-07T16:56:05.292Z,5.61
2018-02-07T16:58:33.626Z,5.72
2018-02-07T17:01:01.927Z,5.51
2018-02-07T17:03:30.202Z,5.36
2018-02-07T17:05:58.528Z,5.25
2018-02-07T17:08:26.823Z,5.32
2018-02-07T17:10:55.579Z,5.36
2018-02-07T17:13:23.877Z,5.30
2018-02-07T17:15:52.192Z,5.03
2018-02-07T17:18:20.478Z,5.04
2018-02-07T17:20:48.892Z,4.99
2018-02-07T17:23:17.208Z,5.05
2018-02-07T17:25:45.527Z,5.11
2018-02-07T17:28:14.068Z,5.13
2018-02-07T17:30:42.424Z,5.02
2018-02-07T17:33:11.587Z,4.83
2018-02-07T17:35:40.161Z,4.73
2018-02-07T17:38:08.523Z,4.65
2018-02-07T17:40:36.802Z,4.69
2018-02-07T17:43:05.141Z,4.71
2018-02-07T17:45:33.383Z,4.50
2018-02-07T17:48:01.688Z,4.42
2018-02-07T17:50:29.976Z,4.31
2018-02-07T17:52:58.287Z,4.26
2018-02-07T17:55:26.604Z,4.36
2018-02-07T17:57:55.581Z,4.39
2018-02-07T18:00:23.901Z,4.40
2018-02-07T18:02:52.206Z,4.30
2018-02-07T18:05:21.477Z,4.28
2018-02-07T18:07:49.846Z,4.18
2018-02-07T18:10:18.139Z,3.99
2018-02-07T18:12:46.424Z,4.05
2018-02-07T18:15:14.720Z,4.00
2018-02-07T18:17:42.996Z,4.13
2018-02-07T18:20:11.331Z,4.22
2018-02-07T18:22:39.602Z,4.34
2018-02-07T18:25:07.917Z,4.31
2018-02-07T18:27:36.190Z,4.13
2018-02-07T18:30:04.512Z,4.16
2018-02-07T18:32:32.788Z,4.47
2018-02-07T18:35:01.112Z,4.31
2018-02-07T18:37:29.412Z,4.16
2018-02-07T18:39:57.761Z,4.27
2018-02-07T18:42:26.086Z,4.67
2018-02-07T18:44:54.377Z,5.03
2018-02-07T18:47:22.690Z,5.19
2018-02-07T18:49:50.968Z,4.98
2018-02-07T18:52:19.285Z,4.59
2018-02-07T18:54:47.547Z,4.25
2018-02-07T18:57:15.855Z,4.19
2018-02-07T18:59:44.148Z,4.23
2018-02-07T19:02:12.459Z,4.24
2018-02-07T19:04:40.756Z,4.15
2018-02-07T19:07:09.072Z,4.00
2018-02-07T19:09:37.372Z,3.90
2018-02-07T19:12:05.775Z,3.81
2018-02-07T19:14:34.083Z,3.73
2018-02-07T19:17:02.419Z,3.73
2018-02-07T19:19:30.753Z,3.63
2018-02-07T19:21:58.967Z,3.71
2018-02-07T19:24:27.297Z,3.67
2018-02-07T19:26:55.598Z,3.68
2018-02-07T19:29:26.152Z,3.61
2018-02-07T19:31:54.414Z,3.58
2018-02-07T19:34:22.853Z,3.56
2018-02-07T19:36:51.139Z,3.48
2018-02-07T19:39:19.473Z,3.57
2018-02-07T19:41:48.884Z,3.63
2018-02-07T19:44:17.203Z,3.53
2018-02-07T19:46:45.482Z,3.61
2018-02-07T19:49:13.797Z,3.74
2018-02-07T19:51:42.084Z,3.88
2018-02-07T19:54:10.473Z,3.80
2018-02-07T19:56:38.776Z,3.76
2018-02-07T19:59:07.117Z,3.60
2018-02-07T20:01:35.435Z,3.52
2018-02-07T20:04:03.752Z,3.52
2018-02-07T20:06:32.113Z,3.46
2018-02-07T20:09:00.412Z,3.43
2018-02-07T20:11:28.724Z,3.41
2018-02-07T20:13:57.023Z,3.44
2018-02-07T20:16:25.388Z,3.59
2018-02-07T20:18:53.660Z,3.52
2018-02-07T20:21:21.968Z,3.42
2018-02-07T20:23:50.241Z,3.37
2018-02-07T20:26:18.731Z,3.41
2018-02-07T20:28:47.182Z,3.36
2018-02-07T20:31:15.454Z,3.25
2018-02-07T20:33:43.801Z,3.23
2018-02-07T20:36:12.100Z,3.37
2018-02-07T20:38:40.397Z,3.40
2018-02-07T20:41:08.948Z,3.32
2018-02-07T20:43:37.236Z,3.43
2018-02-07T20:46:05.809Z,3.50
2018-02-07T20:48:34.124Z,3.64
2018-02-07T20:51:02.406Z,3.78
2018-02-07T20:53:30.742Z,3.92
2018-02-07T20:55:59.016Z,4.01
2018-02-07T20:58:27.373Z,4.17
2018-02-07T21:00:55.661Z,3.96
2018-02-07T21:03:23.979Z,3.79
2018-02-07T21:05:52.231Z,3.84
2018-02-07T21:08:20.692Z,3.80
2018-02-07T21:10:48.972Z,3.98
2018-02-07T21:13:17.260Z,4.01
2018-02-07T21:15:45.560Z,4.01
2018-02-07T21:18:13.839Z,4.01
2018-02-07T21:20:42.177Z,3.81
2018-02-07T21:23:10.464Z,3.61
2018-02-07T21:25:38.803Z,3.49
2018-02-07T21:28:07.123Z,3.36
2018-02-07T21:30:35.456Z,3.36
2018-02-07T21:33:04.894Z,3.42
2018-02-07T21:35:34.003Z,3.39
2018-02-07T21:40:29.657Z,4.03
2018-02-07T21:42:58.032Z,3.87
2018-02-07T21:45:26.291Z,3.67
2018-02-07T21:47:55.400Z,3.74
2018-02-07T21:50:23.668Z,3.64
2018-02-07T21:52:52.195Z,3.94
2018-02-07T21:55:20.504Z,3.74
2018-02-07T21:57:48.790Z,3.39
2018-02-07T22:00:17.090Z,3.32
2018-02-07T22:02:45.368Z,3.27
2018-02-07T22:05:13.710Z,3.24
2018-02-07T22:07:42.065Z,3.36
2018-02-07T22:10:10.402Z,3.36
2018-02-07T22:12:38.712Z,3.51
2018-02-07T22:15:07.020Z,3.42
2018-02-07T22:17:36.299Z,3.40
2018-02-07T22:20:04.616Z,3.59
2018-02-07T22:22:32.894Z,3.86
2018-02-07T22:25:01.200Z,4.06
2018-02-07T22:27:30.013Z,4.20
2018-02-07T22:29:58.332Z,3.89
2018-02-07T22:32:26.598Z,3.93
2018-02-07T22:34:54.912Z,4.13
2018-02-07T22:37:23.251Z,3.90
2018-02-07T22:39:51.551Z,4.12
2018-02-07T22:42:19.903Z,4.18
2018-02-07T22:44:48.193Z,3.58
2018-02-07T22:47:17.286Z,3.42
2018-02-07T22:49:45.641Z,3.76
2018-02-07T22:52:13.956Z,3.80
2018-02-07T22:54:42.228Z,3.58
2018-02-07T22:57:10.559Z,3.48
2018-02-07T22:59:38.913Z,3.47
2018-02-07T23:02:07.220Z,3.29
2018-02-07T23:04:35.520Z,3.27
2018-02-07T23:07:03.836Z,3.41
2018-02-07T23:09:32.191Z,3.35
2018-02-07T23:12:00.501Z,3.26
2018-02-07T23:14:28.794Z,3.17
2018-02-07T23:16:57.075Z,3.34
2018-02-07T23:19:25.383Z,3.82
2018-02-07T23:21:53.894Z,3.50
2018-02-07T23:24:22.205Z,3.31
2018-02-07T23:26:50.479Z,3.27
2018-02-07T23:29:18.824Z,3.14
2018-02-07T23:31:47.089Z,3.14
2018-02-07T23:34:15.410Z,3.17
2018-02-07T23:36:43.818Z,3.13
2018-02-07T23:39:12.092Z,3.09
2018-02-07T23:41:40.377Z,3.40
2018-02-07T23:44:08.682Z,3.32
2018-02-07T23:46:36.962Z,3.43
2018-02-07T23:49:05.228Z,3.72
2018-02-07T23:51:33.543Z,3.67
2018-02-07T23:54:01.853Z,3.55
2018-02-07T23:56:30.135Z,3.41
2018-02-07T23:58:58.414Z,3.17
